Casper, Wyoming Weather

Natrona County International Airport, Casper, WY: 4/24/2017 17:53
Visibility10 statute milessun with a few clouds
View 7-Day Forecast
Area Summary
Sky/CloudsFew at 10000ft
Weather [last 24 hours]None [rain began 19:00 ended 19:10; rain began 22:06 ended 22:50; rain began 23:30 ended 23:43; rain began 12:14 ended 12:20 began 12:39 ended 12:50 ]
Pressure29.51 in.Hg (999.5 hPa)
3-hour Pressure Tendency0.07677 in.Hg (2.6 hPa) Decreasing, then steady, or decreasing then decreasing more slowly
Dew Point32 °F (0 °C)
Relative Humidity41.4 %
6 Hour Precip. Rpt.Trace
Last 24-Hour Precip.Trace
Reading TimePrecipitation
6-hr ending 4/24@17:53Trace
6-hr ending 4/23@23:53Trace
Temperature55 °F (12.8 °C)red thermometer
Reading TimeMinimum to Maximum Temperature
6-hr ending 4/24@17:5351.1 °F to 59 °F (10.6 °C to 15 °C)
6-hr ending 4/24@11:5332 °F to 59 °F (0 °C to 15 °C)
6-hr ending 4/24@05:5332 °F to 52 °F (0 °C to 11.1 °C)
6-hr ending 4/23@23:5352 °F to 64 °F (11.1 °C to 17.8 °C)
24-hr ending 4/24@00:5339.9 °F to 72 °F (4.4 °C to 22.2 °C)
Wind5.75 MPH (5 KT) green arrow pointing 180 degrees
Wind FromSouth (190 Degrees)
Rolling 24-hr Peak Wind56.4 MPH (49 KT) on 4/23@22:31
Rolling 24-hr Peak Wind FromWest (260 Degrees)
Twilight Begins05:38Sunshine Yesterday
Sunrise06:08N/A
Sunset20:00
Twilight Ends20:31
METARKCPR 242353Z 19005KT 10SM FEW100 13/00 A2951 RMK AO2 SLP974 60000 T01280000 10150 20106 56026